Time;durP1;ratioP1;P1;durP2;ratioP2;P2;SDS_P1;SDS_P2;PMS_P1;PMS_P2;Temp;Humidity;BMP_temperature;BMP_pressure;BME280_temperature;BME280_humidity;BME280_pressure;Samples;Min_cycle;Max_cycle;Signal;HPM_P1;HPM_P2
2022/09/29 00:08:49;;;;;;;4.50;2.90;;;;;;;9.46;94.68;97190.43;218527;1282;25370;-75
2022/09/29 00:21:56;;;;;;;;;;;;;;;;;;;;;
2022/09/29 00:29:01;;;;;;;6.90;3.30;;;;;;;9.27;95.49;97225.25;219360;1281;25701;-75
2022/09/29 00:36:12;;;;;;;7.80;3.40;;;;;;;9.22;95.89;97229.00;219031;1281;25559;-75
2022/09/29 00:42:07;;;;;;;4.10;3.20;;;;;;;9.20;96.10;97230.92;218717;1281;24300;-75
2022/09/29 00:48:16;;;;;;;5.70;3.30;;;;;;;9.16;96.16;97239.06;219339;1282;22502;-75
2022/09/29 00:54:12;;;;;;;6.70;3.20;;;;;;;9.17;96.27;97241.87;219281;1281;24453;-75
2022/09/29 01:00:10;;;;;;;5.00;2.50;;;;;;;9.20;96.25;97236.02;219305;1281;23619;-75
2022/09/29 01:07:04;;;;;;;5.30;3.50;;;;;;;9.18;96.09;97230.58;219325;1281;24314;-75
2022/09/29 01:20:24;;;;;;;4.40;3.10;;;;;;;9.23;96.42;97238.12;219048;1282;22580;-75
2022/09/29 01:27:15;;;;;;;9.20;4.80;;;;;;;9.21;96.59;97252.71;218908;1282;22592;-75
2022/09/29 01:34:07;;;;;;;6.70;4.70;;;;;;;9.20;97.07;97248.87;218945;1282;25339;-75
2022/09/29 01:40:58;;;;;;;7.20;3.70;;;;;;;9.24;96.90;97236.03;218122;1287;22580;-75
2022/09/29 01:47:42;;;;;;;;;;;;;;;;;;;;;
2022/09/29 01:54:26;;;;;;;4.10;2.90;;;;;;;9.24;96.72;97265.14;214656;1284;5390637;-75
2022/09/29 02:21:18;;;;;;;7.00;4.80;;;;;;;9.31;97.37;97250.23;218636;1282;24319;-75
2022/09/29 02:27:39;;;;;;;;;;;;;;;;;;;;;
2022/09/29 02:34:24;;;;;;;9.60;5.20;;;;;;;9.30;97.60;97247.75;219242;1281;22573;-76
2022/09/29 02:41:25;;;;;;;10.50;6.00;;;;;;;9.31;97.87;97241.90;218324;1284;25335;-75
2022/09/29 02:54:47;;;;;;;8.90;6.10;;;;;;;9.36;98.21;97243.27;218861;1281;25327;-74
2022/09/29 03:42:04;;;;;;;;;;;;;;;;;;;;;
2022/09/29 03:47:54;;;;;;;;;;;;;;;;;;;;;
2022/09/29 03:59:30;;;;;;;7.30;5.70;;;;;;;9.50;98.16;97265.20;219132;1281;22624;-74
2022/09/29 04:12:25;;;;;;;9.10;5.40;;;;;;;9.49;98.34;97274.52;218746;1281;24028;-74
2022/09/29 04:18:23;;;;;;;;;;;;;;;;;;;;;
2022/09/29 04:24:58;;;;;;;7.00;5.20;;;;;;;9.49;98.16;97289.92;218472;1282;22547;-74
2022/09/29 04:37:34;;;;;;;7.60;5.50;;;;;;;9.41;98.22;97289.84;218154;1287;22576;-74
2022/09/29 04:43:10;;;;;;;;;;;;;;;;;;;;;
2022/09/29 04:49:55;;;;;;;9.10;5.50;;;;;;;9.40;98.02;97284.68;219070;1281;23853;-74
2022/09/29 04:54:52;;;;;;;8.70;5.50;;;;;;;9.39;97.92;97290.98;218754;1282;22559;-73
2022/09/29 04:59:55;;;;;;;9.40;5.60;;;;;;;9.39;98.02;97302.48;219223;1281;22594;-75
2022/09/29 05:05:06;;;;;;;7.50;4.70;;;;;;;9.39;97.95;97305.85;219228;1281;22716;-74
2022/09/29 05:11:20;;;;;;;8.30;4.70;;;;;;;9.39;98.03;97317.08;219107;1281;22640;-74
2022/09/29 05:23:15;;;;;;;12.00;10.70;;;;;;;9.41;98.27;97309.62;219370;1282;22643;-75
2022/09/29 05:29:41;;;;;;;7.10;4.90;;;;;;;9.44;98.08;97316.36;218246;1284;22597;-74
2022/09/29 05:42:36;;;;;;;;;;;;;;;;;;;;;
2022/09/29 05:53:38;;;;;;;8.80;4.70;;;;;;;9.70;97.63;97307.52;219174;1282;22572;-75
2022/09/29 05:59:12;;;;;;;6.90;4.30;;;;;;;9.74;97.78;97311.86;219368;1281;22769;-75
2022/09/29 06:04:38;;;;;;;6.40;4.00;;;;;;;9.82;97.59;97323.29;219804;1281;22548;-77
2022/09/29 06:22:53;;;;;;;;;;;;;;;;;;;;;
2022/09/29 06:29:10;;;;;;;3.90;3.30;;;;;;;10.21;96.47;97337.20;218912;1282;22658;-76
2022/09/29 06:41:15;;;;;;;5.30;3.40;;;;;;;10.64;96.65;97336.83;218748;1282;24129;-76
2022/09/29 06:53:22;;;;;;;;;;;;;;;;;;;;;
2022/09/29 06:59:08;;;;;;;4.60;3.30;;;;;;;11.46;94.73;97330.89;219695;1281;24226;-76
2022/09/29 07:05:47;;;;;;;;;;;;;;;;;;;;;
2022/09/29 07:18:56;;;;;;;6.40;4.40;;;;;;;11.73;92.80;97336.88;218486;1282;22669;-77
2022/09/29 07:24:58;;;;;;;5.90;4.20;;;;;;;11.92;93.07;97343.14;219341;1282;22753;-77
2022/09/29 07:30:00;;;;;;;5.90;3.50;;;;;;;12.10;92.29;97350.50;219366;1282;23842;-76
2022/09/29 07:36:12;;;;;;;7.20;3.90;;;;;;;12.21;92.16;97356.67;219315;1281;24339;-76
2022/09/29 07:42:17;;;;;;;5.20;3.00;;;;;;;12.43;91.07;97359.02;219083;1284;25516;-76
2022/09/29 07:53:43;;;;;;;7.00;3.60;;;;;;;12.49;89.71;97365.56;219197;1282;24449;-76
2022/09/29 08:00:12;;;;;;;;;;;;;;;;;;;;;
2022/09/29 08:06:18;;;;;;;5.20;2.80;;;;;;;12.85;90.35;97380.27;219173;1284;23136;-76
2022/09/29 08:12:42;;;;;;;;;;;;;;;;;;;;;
2022/09/29 08:19:19;;;;;;;5.80;3.30;;;;;;;12.62;88.16;97396.30;218656;1284;25296;-77
2022/09/29 08:25:05;;;;;;;6.00;2.80;;;;;;;12.59;87.57;97409.09;219590;1281;23811;-76
2022/09/29 08:36:55;;;;;;;;;;;;;;;;;;;;;
2022/09/29 08:43:35;;;;;;;4.50;3.00;;;;;;;12.94;86.99;97415.48;219623;1281;22566;-76
2022/09/29 08:49:44;;;;;;;4.90;3.10;;;;;;;13.32;85.92;97408.85;219470;1281;24318;-76
2022/09/29 08:55:51;;;;;;;3.30;2.50;;;;;;;13.63;86.82;97410.45;219748;1281;22679;-75
2022/09/29 09:02:09;;;;;;;4.00;3.10;;;;;;;13.84;84.56;97422.48;220065;1281;26529;-76
2022/09/29 09:07:54;;;;;;;5.50;3.20;;;;;;;13.80;83.12;97424.92;219532;1281;23054;-75
2022/09/29 09:14:09;;;;;;;5.40;3.70;;;;;;;13.73;84.05;97428.34;219356;1282;24252;-77
2022/09/29 09:20:49;;;;;;;6.30;4.70;;;;;;;13.86;84.36;97431.63;219386;1281;25447;-76
2022/09/29 09:33:15;;;;;;;;;;;;;;;;;;;;;
2022/09/29 09:38:45;;;;;;;4.70;3.80;;;;;;;14.10;82.71;97431.17;219431;1281;24237;-77
2022/09/29 09:44:59;;;;;;;5.30;4.10;;;;;;;14.03;82.18;97431.61;219458;1281;25371;-76
2022/09/29 09:58:54;;;;;;;5.50;2.90;;;;;;;13.73;81.99;97451.48;219280;1281;22679;-74
2022/09/29 10:05:04;;;;;;;5.20;3.90;;;;;;;13.56;81.75;97448.92;219408;1281;22600;-75
2022/09/29 10:11:09;;;;;;;3.80;3.00;;;;;;;13.55;81.63;97447.96;219377;1281;25348;-75
2022/09/29 10:17:41;;;;;;;6.60;3.10;;;;;;;13.52;81.29;97446.89;219190;1281;24427;-75
2022/09/29 10:22:44;;;;;;;5.80;3.60;;;;;;;13.70;81.40;97442.55;219186;1281;22598;-75
2022/09/29 10:28:12;;;;;;;5.00;3.60;;;;;;;14.05;81.51;97444.83;219212;1281;22552;-76
2022/09/29 10:34:27;;;;;;;5.90;3.70;;;;;;;14.26;80.68;97449.98;219550;1281;25054;-75
2022/09/29 10:40:27;;;;;;;4.10;3.60;;;;;;;14.15;80.45;97453.56;220784;1281;25820;-74
2022/09/29 10:46:29;;;;;;;;;;;;;;;;;;;;;
2022/09/29 10:52:30;;;;;;;5.70;3.60;;;;;;;14.03;80.12;97461.40;220211;1281;23825;-76
2022/09/29 11:04:39;;;;;;;4.20;2.90;;;;;;;13.95;79.89;97472.88;219584;1281;22559;-75
2022/09/29 11:09:49;;;;;;;8.00;3.40;;;;;;;13.91;78.96;97470.50;219458;1281;25347;-75
2022/09/29 11:16:13;;;;;;;6.80;4.50;;;;;;;13.89;79.14;97468.92;219344;1281;22550;-75
2022/09/29 11:22:24;;;;;;;11.90;6.00;;;;;;;13.92;79.39;97467.31;218937;1282;22571;-75
2022/09/29 11:28:17;;;;;;;8.50;4.50;;;;;;;13.87;79.08;97465.56;219370;1281;25421;-76
2022/09/29 11:34:20;;;;;;;5.50;3.60;;;;;;;13.79;79.25;97468.51;218215;1285;24564;-76
2022/09/29 11:40:15;;;;;;;4.30;3.00;;;;;;;13.93;79.05;97467.80;218434;1287;24924;-76
2022/09/29 11:45:23;;;;;;;10.30;6.20;;;;;;;13.98;78.58;97469.70;218288;1287;22620;-76
2022/09/29 11:50:44;;;;;;;5.60;4.20;;;;;;;14.02;78.74;97463.75;218344;1287;22579;-76
2022/09/29 11:56:24;;;;;;;6.80;4.60;;;;;;;14.09;78.32;97468.92;218314;1287;23981;-76
2022/09/29 12:02:09;;;;;;;13.20;7.40;;;;;;;14.14;78.20;97469.07;218253;1284;24196;-75
2022/09/29 12:07:34;;;;;;;8.70;5.90;;;;;;;14.23;78.40;97470.52;217747;1287;24263;-76
2022/09/29 12:13:33;;;;;;;13.50;7.10;;;;;;;14.29;77.97;97474.61;218855;1286;22588;-76
2022/09/29 12:19:05;;;;;;;11.80;6.80;;;;;;;14.37;77.56;97472.45;217642;1290;23383;-74
2022/09/29 12:24:48;;;;;;;8.50;6.10;;;;;;;14.49;77.65;97472.30;217755;1288;25417;-78
2022/09/29 12:30:48;;;;;;;7.70;4.90;;;;;;;14.66;77.57;97480.20;217169;1293;25232;-76
2022/09/29 12:42:48;;;;;;;10.80;3.60;;;;;;;14.87;76.66;97484.96;216857;1293;23424;-75
2022/09/29 12:48:50;;;;;;;6.20;3.60;;;;;;;14.98;75.85;97483.06;217622;1287;25324;-76
2022/09/29 12:55:01;;;;;;;;;;;;;;;;;;;;;
2022/09/29 13:00:50;;;;;;;2.60;2.20;;;;;;;15.27;74.21;97482.05;217570;1287;22606;-76
2022/09/29 13:06:21;;;;;;;32.90;22.30;;;;;;;15.25;73.38;97491.33;219412;1281;24304;-75
2022/09/29 13:11:58;;;;;;;9.70;7.40;;;;;;;15.35;73.88;97492.01;219597;1281;22590;-75
2022/09/29 13:17:36;;;;;;;5.30;4.60;;;;;;;15.56;73.46;97497.33;219482;1281;22616;-75
2022/09/29 13:24:12;;;;;;;3.80;3.30;;;;;;;15.62;71.37;97494.47;220453;1281;22720;-73
2022/09/29 13:29:37;;;;;;;3.70;3.20;;;;;;;15.63;71.99;97499.71;219648;1281;22837;-75
2022/09/29 13:35:33;;;;;;;4.00;2.70;;;;;;;15.65;71.21;97506.25;218226;1285;24344;-75
2022/09/29 13:41:09;;;;;;;4.70;3.30;;;;;;;15.53;69.91;97513.31;218172;1287;22576;-76
2022/09/29 13:46:39;;;;;;;6.80;3.60;;;;;;;15.64;71.46;97507.00;219298;1286;24742;-77
2022/09/29 13:52:04;;;;;;;;;;;;;;;;;;;;;
2022/09/29 14:03:58;;;;;;;7.60;4.70;;;;;;;16.04;70.82;97516.11;219226;1290;25484;-75
2022/09/29 14:09:55;;;;;;;13.20;8.70;;;;;;;16.04;70.29;97516.57;218429;1290;24480;-75
2022/09/29 14:16:39;;;;;;;8.50;5.90;;;;;;;16.08;69.97;97518.91;220482;1287;22552;-72
2022/09/29 14:28:30;;;;;;;6.20;3.90;;;;;;;16.41;69.32;97530.73;223310;1281;22610;-75
2022/09/29 14:34:22;;;;;;;7.50;4.70;;;;;;;16.50;69.15;97538.23;223097;1282;22554;-73
2022/09/29 14:40:26;;;;;;;6.10;4.10;;;;;;;16.45;68.85;97540.61;222842;1284;23260;-75
2022/09/29 14:57:09;;;;;;;5.60;4.40;;;;;;;15.81;68.49;97534.45;220866;1281;24198;-73
2022/09/29 15:02:40;;;;;;;11.80;4.80;;;;;;;15.55;68.62;97531.56;221241;1281;23198;-74
2022/09/29 15:08:05;;;;;;;;;;;;;;;15.39;69.47;97537.21;221144;1282;22913;-74
2022/09/29 15:13:56;;;;;;;10.20;6.10;;;;;;;15.16;69.69;97544.85;222021;1281;22602;-74
2022/09/29 15:19:22;;;;;;;7.10;5.10;;;;;;;14.81;70.15;97552.36;222349;1281;24398;-74
2022/09/29 15:24:56;;;;;;;10.10;6.80;;;;;;;14.51;70.88;97553.85;222661;1281;22647;-74
2022/09/29 15:30:18;;;;;;;11.40;7.50;;;;;;;14.27;71.66;97553.98;222437;1280;22561;-74
2022/09/29 15:35:24;;;;;;;10.30;6.20;;;;;;;14.07;71.98;97549.27;221692;1281;22663;-74
2022/09/29 15:40:36;;;;;;;10.90;5.70;;;;;;;13.91;72.35;97550.22;221604;1281;22539;-73
2022/09/29 15:46:01;;;;;;;6.20;4.50;;;;;;;13.79;72.84;97559.16;221879;1281;24219;-74
2022/09/29 15:51:03;;;;;;;9.20;4.70;;;;;;;13.70;73.25;97559.04;222005;1281;23617;-75
2022/09/29 15:56:05;;;;;;;5.70;4.10;;;;;;;13.63;73.64;97562.96;221520;1282;22587;-75
2022/09/29 16:01:18;;;;;;;6.70;4.10;;;;;;;13.51;73.99;97567.15;221049;1281;24220;-74
2022/09/29 16:06:34;;;;;;;6.80;5.00;;;;;;;13.34;74.24;97570.01;221408;1281;22941;-74
2022/09/29 16:11:39;;;;;;;11.20;6.60;;;;;;;13.09;74.51;97572.48;222706;1281;22692;-73
2022/09/29 16:16:47;;;;;;;12.70;7.10;;;;;;;12.88;75.09;97585.23;221670;1281;23803;-74
2022/09/29 16:21:52;;;;;;;13.40;7.80;;;;;;;12.68;75.61;97600.05;220647;1284;22916;-73
2022/09/29 16:26:56;;;;;;;19.50;10.20;;;;;;;12.47;76.07;97603.37;221259;1281;22610;-75
2022/09/29 16:32:31;;;;;;;17.10;9.50;;;;;;;12.28;76.44;97608.33;219919;1281;22720;-75
2022/09/29 16:37:59;;;;;;;24.10;13.00;;;;;;;12.06;77.18;97609.71;219135;1284;24888;-75
2022/09/29 16:43:05;;;;;;;17.60;9.90;;;;;;;11.84;77.28;97622.06;218919;1284;23343;-75
2022/09/29 16:48:08;;;;;;;15.40;9.30;;;;;;;11.65;78.00;97625.60;219270;1284;22619;-75
2022/09/29 16:53:25;;;;;;;17.40;9.80;;;;;;;11.46;78.27;97633.04;218643;1284;22575;-77
2022/09/29 16:58:29;;;;;;;14.60;8.50;;;;;;;11.27;78.61;97639.48;218373;1287;22800;-75
2022/09/29 17:03:34;;;;;;;15.20;7.80;;;;;;;11.09;78.95;97647.86;219021;1281;24304;-75
2022/09/29 17:08:54;;;;;;;13.00;7.50;;;;;;;10.93;79.53;97655.80;218800;1285;22720;-74
2022/09/29 17:13:58;;;;;;;10.60;6.60;;;;;;;10.77;80.06;97658.88;218517;1286;22645;-75
2022/09/29 17:19:01;;;;;;;15.00;7.40;;;;;;;10.61;80.56;97663.13;218122;1287;24180;-75
2022/09/29 17:24:04;;;;;;;14.20;7.20;;;;;;;10.44;80.96;97664.90;218632;1284;25508;-76
2022/09/29 17:29:11;;;;;;;13.20;7.10;;;;;;;10.29;81.43;97669.58;218575;1285;22657;-75
2022/09/29 17:34:23;;;;;;;12.70;7.80;;;;;;;10.17;82.07;97676.36;218578;1284;22668;-74
2022/09/29 17:39:39;;;;;;;17.60;9.90;;;;;;;10.09;82.28;97680.54;218342;1287;23853;-75
2022/09/29 17:45:03;;;;;;;12.70;8.50;;;;;;;9.98;82.54;97688.56;218721;1281;22762;-75
2022/09/29 17:50:47;;;;;;;;;;;;;;;;;;;;;
2022/09/29 17:55:53;;;;;;;19.10;12.00;;;;;;;9.74;83.12;97692.92;219423;1281;22665;-76
2022/09/29 18:00:58;;;;;;;18.20;11.80;;;;;;;9.63;83.44;97694.55;219273;1281;24448;-75
2022/09/29 18:06:01;;;;;;;15.60;9.50;;;;;;;9.50;83.75;97695.95;219403;1281;24007;-75
2022/09/29 18:11:17;;;;;;;17.60;10.70;;;;;;;9.40;84.30;97688.78;219345;1281;25063;-75
2022/09/29 18:16:31;;;;;;;18.60;10.00;;;;;;;9.27;84.58;97695.19;219173;1281;22567;-75
2022/09/29 18:22:27;;;;;;;18.70;9.70;;;;;;;9.11;84.86;97691.31;219403;1281;22545;-75
2022/09/29 18:27:38;;;;;;;18.20;9.70;;;;;;;9.01;85.64;97699.92;218953;1284;24309;-75
2022/09/29 18:33:03;;;;;;;14.70;8.50;;;;;;;8.92;85.86;97692.58;219250;1281;23025;-76
2022/09/29 18:38:05;;;;;;;20.30;11.70;;;;;;;8.81;86.22;97689.73;219235;1281;25263;-75
2022/09/29 18:43:36;;;;;;;17.00;10.10;;;;;;;8.71;86.63;97694.81;218710;1284;24239;-76
2022/09/29 18:49:04;;;;;;;17.90;9.50;;;;;;;8.64;87.12;97700.15;218498;1284;22631;-76
2022/09/29 18:55:24;;;;;;;;;;;;;;;;;;;;;
2022/09/29 19:01:01;;;;;;;20.70;10.60;;;;;;;8.42;87.51;97703.54;217997;1287;24245;-75
2022/09/29 19:06:56;;;;;;;18.20;8.80;;;;;;;8.32;87.86;97717.77;218457;1284;22583;-75
2022/09/29 19:12:47;;;;;;;17.10;9.30;;;;;;;8.24;88.44;97728.62;219204;1284;25282;-75
2022/09/29 19:18:22;;;;;;;16.10;9.30;;;;;;;8.18;88.64;97742.83;218698;1284;22561;-75
2022/09/29 19:24:18;;;;;;;15.30;9.20;;;;;;;8.09;88.90;97741.42;217682;1287;25368;-75
2022/09/29 19:30:02;;;;;;;21.20;10.80;;;;;;;8.04;89.04;97744.65;218529;1284;25363;-75
2022/09/29 19:36:26;;;;;;;;;;;;;;;;;;;;;
2022/09/29 19:48:26;;;;;;;22.60;12.40;;;;;;;7.99;90.52;97728.95;218324;1284;22717;-75
2022/09/29 19:55:05;;;;;;;15.50;9.40;;;;;;;8.02;90.75;97734.01;218654;1281;24436;-76
2022/09/29 20:01:33;;;;;;;;;;;;;;;;;;;;;
2022/09/29 20:07:30;;;;;;;14.70;8.90;;;;;;;8.03;91.37;97744.48;218935;1281;22570;-76
2022/09/29 20:13:04;;;;;;;19.30;10.50;;;;;;;7.99;91.56;97747.58;219459;1281;25336;-75
2022/09/29 20:19:19;;;;;;;17.60;10.00;;;;;;;7.92;91.36;97758.67;218863;1281;24247;-76
2022/09/29 20:25:35;;;;;;;16.40;10.00;;;;;;;7.82;91.82;97772.46;219341;1279;23314;-75
2022/09/29 20:31:19;;;;;;;20.60;11.20;;;;;;;7.77;91.89;97784.92;219402;1281;22584;-75
2022/09/29 20:36:21;;;;;;;19.90;11.50;;;;;;;7.70;92.20;97790.22;219492;1281;22655;-75
2022/09/29 20:41:42;;;;;;;18.00;10.20;;;;;;;7.64;92.43;97786.10;219502;1281;25434;-75
2022/09/29 20:47:11;;;;;;;19.00;11.30;;;;;;;7.60;92.55;97787.46;219223;1281;22565;-75
2022/09/29 20:58:37;;;;;;;20.00;11.40;;;;;;;7.59;93.18;97815.14;218598;1282;22596;-75
2022/09/29 21:04:13;;;;;;;19.00;10.70;;;;;;;7.64;93.56;97830.88;218979;1282;24177;-75
2022/09/29 21:10:16;;;;;;;14.80;8.90;;;;;;;7.67;93.49;97832.43;218959;1284;22575;-75
2022/09/29 21:15:42;;;;;;;17.00;10.10;;;;;;;7.68;93.75;97843.23;219034;1284;22539;-75
2022/09/29 21:22:54;;;;;;;;;;;;;;;;;;;;;
2022/09/29 21:28:28;;;;;;;13.70;8.40;;;;;;;7.58;93.64;97848.95;219007;1284;22652;-75
2022/09/29 21:35:03;;;;;;;16.80;10.70;;;;;;;7.49;93.90;97846.52;219235;1281;24287;-76
2022/09/29 21:46:52;;;;;;;14.00;8.80;;;;;;;7.29;93.91;97855.71;218918;1281;26606;-75
2022/09/29 21:52:18;;;;;;;12.70;7.20;;;;;;;7.19;94.06;97846.34;219401;1281;22753;-75
2022/09/29 21:57:28;;;;;;;20.60;10.80;;;;;;;7.13;94.25;97842.95;219876;1281;25377;-75
2022/09/29 22:03:28;;;;;;;19.70;11.80;;;;;;;7.11;94.22;97837.18;219158;1281;24617;-75
2022/09/29 22:09:43;;;;;;;16.40;9.50;;;;;;;7.10;94.51;97835.71;218802;1281;26377;-75
2022/09/29 22:16:05;;;;;;;17.10;10.30;;;;;;;7.09;94.83;97827.23;219004;1282;25269;-75
2022/09/29 22:36:55;;;;;;;19.40;11.10;;;;;;;7.16;95.55;97826.93;218208;1284;22551;-75
2022/09/29 22:50:40;;;;;;;20.80;12.80;;;;;;;7.18;95.67;97838.05;218385;1284;22578;-75
2022/09/29 22:56:34;;;;;;;;;;;;;;;7.14;95.71;97843.47;219481;1281;22691;-75
2022/09/29 23:15:19;;;;;;;;;;;;;;;;;;;;;
2022/09/29 23:21:51;;;;;;;19.40;10.90;;;;;;;7.00;96.24;97865.61;219185;1282;22598;-75
2022/09/29 23:27:10;;;;;;;19.80;12.30;;;;;;;7.01;96.32;97871.30;219449;1281;24435;-75
2022/09/29 23:33:37;;;;;;;;;;;;;;;;;;;;;
2022/09/29 23:40:05;;;;;;;19.00;12.20;;;;;;;7.14;96.56;97858.34;218628;1281;22553;-75
2022/09/29 23:45:58;;;;;;;19.60;12.10;;;;;;;7.24;96.91;97848.92;217778;1287;24437;-75
2022/09/29 23:59:29;;;;;;;18.90;11.30;;;;;;;7.41;96.99;97847.62;217628;1287;22561;-75
